Wrightstown, NJ (08562)

8:21 AM EDT on April 20, 2018 (GMT -0400)
Cookstown NJ | | Change Station

Elev 105 ft 40.04 °N, 74.55 °W | Updated 30 seconds ago

Overcast
Overcast
37.8 °F
Feels Like 31 °F
N
10.0
Wind Variable Wind from NW
Gusts 12.0 mph

Today
High -- | Low -- °F
--% Chance of Precip.
Yesterday
High -- | Low -- °F
Precip. -- in
Pressure 30.15 in
Visibility 10.0 miles
Clouds Overcast 4700 ft
Windchill 31 °F
Dew Point 26 °F
Humidity 61%
Rainfall 0.00 in
Snow Depth Not available.
6:13 AM 7:42 PM
Waxing Crescent, 24% visible
METAR KWRI 201156Z AUTO 31010KT 10SM OVC047 04/M05 A3015 RMK AO2 SLP210 70001 T00351052 10035 20015 52019 $
Pressure 30.15 in
Visibility 10.0 miles
Clouds Overcast 4700 ft
Windchill 31 °F
Dew Point 26 °F
Humidity 61%
Rainfall 0.00 in
Snow Depth Not available.
6:13 AM 7:42 PM
Waxing Crescent, 24% visible
METAR KWRI 201156Z AUTO 31010KT 10SM OVC047 04/M05 A3015 RMK AO2 SLP210 70001 T00351052 10035 20015 52019 $

Get Severe Weather Alerts

Thanks for signing up!

Be on the lookout for a verification email in your inbox.

You'll start receiving the daily forecast at 6 AM.

×

10-Day Weather Forecast

Almanac

Astronomy

Apr. 20, 2018 Rise Set
Actual Time
Civil Twilight
Nautical Twilight
Astronomical Twilight
Moon
Length of Visible Light
Length of Day
Tomorrow will be .
, % of the Moon is Illuminated

Today's Extremes

State Highs State Lows

Community

WunderPhotos

Category 6

Welcome to Category 6. This is the collective home for Weather Underground's featured writeups by Dr. Jeff Masters (right), Bob Henson (left), Chris Burt, and other regular contributors.

Nearby

Air Quality

  Air Quality AQ Index Pollutant
Not available.

Snow Depth

Station Depth Elevation

Earthquake Activity

City Distance Mag. Time & Date
Minimum magnitude displayed is 2.5.

Coastal Water Temperatures

Place Temperature

Stations

Nearby Weather Stations

Station Location Temp. Windchill Dew Point Humidity Wind Precip. Elev Updated Type
                   

Watches & Warnings

There are currently no watches in effect.